Time;durP1;ratioP1;P1;durP2;ratioP2;P2;SDS_P1;SDS_P2;PMS_P1;PMS_P2;Temp;Humidity;BMP_temperature;BMP_pressure;BME280_temperature;BME280_humidity;BME280_pressure;Samples;Min_cycle;Max_cycle;Signal;HPM_P1;HPM_P2
2023/04/13 00:00:29;;;;;;;0.20;0.20;;;;;;;9.26;41.17;99517.78;4943567;29;20143;-66
2023/04/13 00:02:56;;;;;;;0.10;0.10;;;;;;;9.24;41.12;99519.97;4948408;28;20047;-66
2023/04/13 00:05:23;;;;;;;0.13;0.13;;;;;;;9.22;41.06;99520.25;4951602;29;20414;-66
2023/04/13 00:07:50;;;;;;;0.20;0.20;;;;;;;9.23;41.38;99521.06;4949559;29;20145;-65
2023/04/13 00:10:17;;;;;;;0.13;0.13;;;;;;;9.21;41.45;99520.53;4949355;29;20174;-66
2023/04/13 00:12:47;;;;;;;0.10;0.10;;;;;;;9.19;41.67;99519.97;4947599;29;20043;-65
2023/04/13 00:15:14;;;;;;;0.10;0.10;;;;;;;9.11;42.02;99524.06;4949486;29;20051;-65
2023/04/13 00:17:41;;;;;;;0.20;0.20;;;;;;;9.05;42.29;99519.69;4950042;29;20544;-66
2023/04/13 00:20:12;;;;;;;0.10;0.10;;;;;;;9.07;42.19;99531.16;4950268;29;20043;-66
2023/04/13 00:22:41;;;;;;;0.20;0.20;;;;;;;9.06;41.80;99532.25;4931072;29;20051;-66
2023/04/13 00:25:08;;;;;;;0.13;0.13;;;;;;;9.04;41.98;99527.06;4947497;29;20055;-65
2023/04/13 00:27:34;;;;;;;0.10;0.10;;;;;;;9.00;41.75;99527.88;4947007;29;20055;-66
2023/04/13 00:30:00;;;;;;;0.10;0.10;;;;;;;8.98;41.96;99522.69;4950861;29;20077;-66
2023/04/13 00:32:26;;;;;;;0.10;0.10;;;;;;;8.91;41.93;99528.41;4948954;29;20071;-65
2023/04/13 00:34:52;;;;;;;0.10;0.10;;;;;;;8.84;42.33;99533.28;4947536;29;20561;-66
2023/04/13 00:37:19;;;;;;;0.13;0.13;;;;;;;8.79;42.32;99530.56;4948740;29;20043;-66
2023/04/13 00:39:47;;;;;;;0.10;0.10;;;;;;;8.78;42.41;99535.19;4930012;29;20086;-66
2023/04/13 00:42:17;;;;;;;0.57;0.30;;;;;;;8.76;42.27;99531.13;4919527;29;20514;-66
2023/04/13 00:44:43;;;;;;;0.10;0.10;;;;;;;8.77;42.15;99533.56;4928955;29;20549;-66
2023/04/13 00:47:09;;;;;;;0.10;0.10;;;;;;;8.73;42.18;99529.72;4946783;29;20138;-65
2023/04/13 00:49:35;;;;;;;0.20;0.20;;;;;;;8.69;42.41;99525.09;4945561;29;20138;-65
2023/04/13 00:52:01;;;;;;;0.15;0.15;;;;;;;8.65;42.69;99528.34;4946983;29;20134;-65
2023/04/13 00:54:28;;;;;;;0.20;0.20;;;;;;;8.57;42.81;99526.13;4948101;29;20051;-65
2023/04/13 00:56:57;;;;;;;0.10;0.10;;;;;;;8.51;43.07;99530.78;4927383;29;20047;-66
2023/04/13 00:59:26;;;;;;;0.77;0.30;;;;;;;8.48;43.21;99530.44;4928730;29;20106;-66
2023/04/13 01:01:55;;;;;;;0.38;0.20;;;;;;;8.43;43.38;99535.88;4947827;29;20047;-66
2023/04/13 01:04:22;;;;;;;0.20;0.20;;;;;;;8.41;43.39;99527.97;4949901;29;20094;-66
2023/04/13 01:06:55;;;;;;;0.10;0.10;;;;;;;8.39;43.59;99532.88;4949917;29;20066;-66
2023/04/13 01:09:27;;;;;;;0.15;0.15;;;;;;;8.37;43.38;99538.56;4948863;29;20043;-66
2023/04/13 01:11:59;;;;;;;0.32;0.15;;;;;;;8.38;43.47;99542.13;4947161;29;20054;-64
2023/04/13 01:14:31;;;;;;;0.10;0.10;;;;;;;8.36;43.49;99542.38;4912708;29;20051;-66
2023/04/13 01:17:02;;;;;;;0.13;0.13;;;;;;;8.36;43.29;99536.94;4927902;29;20055;-65
2023/04/13 01:19:44;;;;;;;0.10;0.10;;;;;;;8.32;43.24;99533.13;4928449;29;20540;-65
2023/04/13 01:22:13;;;;;;;0.20;0.20;;;;;;;8.31;43.45;99533.38;4945225;29;20058;-65
2023/04/13 01:24:48;;;;;;;0.10;0.10;;;;;;;8.30;43.64;99538.03;4928894;29;20146;-65
2023/04/13 01:27:21;;;;;;;0.10;0.10;;;;;;;8.31;43.54;99547.81;4945726;29;20102;-66
2023/04/13 01:29:55;;;;;;;0.10;0.10;;;;;;;8.30;43.48;99540.75;4922003;29;20051;-65
2023/04/13 01:32:22;;;;;;;0.10;0.10;;;;;;;8.30;43.38;99543.47;4919364;29;20569;-65
2023/04/13 01:34:49;;;;;;;0.10;0.10;;;;;;;8.30;43.49;99542.63;4947442;29;20574;-66
2023/04/13 01:37:16;;;;;;;0.10;0.10;;;;;;;8.24;43.68;99544.50;4932139;29;20058;-66
2023/04/13 01:39:42;;;;;;;0.15;0.15;;;;;;;8.20;43.76;99535.25;4929959;29;20322;-66
2023/04/13 01:42:35;;;;;;;0.45;0.28;;;;;;;8.17;43.70;99528.41;4944385;29;20047;-67
2023/04/13 01:45:04;;;;;;;0.10;0.10;;;;;;;8.13;43.70;99534.69;4909146;29;20045;-67
2023/04/13 01:47:33;;;;;;;0.20;0.15;;;;;;;8.08;44.05;99533.53;4921921;29;20933;-66
2023/04/13 01:50:12;;;;;;;0.10;0.10;;;;;;;8.08;44.24;99530.03;4928440;29;20047;-66
2023/04/13 01:52:53;;;;;;;0.75;0.30;;;;;;;8.06;44.22;99524.81;4950997;28;20054;-67
2023/04/13 01:55:22;;;;;;;0.10;0.10;;;;;;;8.07;44.51;99534.63;4928971;29;20524;-66
2023/04/13 01:57:54;;;;;;;0.10;0.10;;;;;;;8.06;44.64;99529.47;4930761;29;20134;-66
2023/04/13 02:00:30;;;;;;;0.10;0.10;;;;;;;8.07;44.82;99531.09;4945657;29;20043;-66
2023/04/13 02:02:57;;;;;;;0.10;0.10;;;;;;;8.05;45.07;99538.72;4929072;29;20047;-66
2023/04/13 02:05:23;;;;;;;0.20;0.20;;;;;;;8.02;45.06;99533.78;4945982;29;20047;-66
2023/04/13 02:07:49;;;;;;;0.20;0.20;;;;;;;8.05;44.84;99536.00;4926253;29;20055;-66
2023/04/13 02:10:17;;;;;;;0.20;0.20;;;;;;;8.05;44.78;99536.00;4928803;29;20158;-66
2023/04/13 02:12:44;;;;;;;0.10;0.10;;;;;;;8.07;44.48;99529.19;4927244;29;20529;-66
2023/04/13 02:15:10;;;;;;;0.20;0.20;;;;;;;8.03;44.59;99536.25;4945659;29;20708;-67
2023/04/13 02:17:40;;;;;;;0.10;0.10;;;;;;;8.02;44.70;99531.06;4928019;29;20077;-66
2023/04/13 02:20:10;;;;;;;0.35;0.20;;;;;;;8.04;45.05;99535.16;4929609;29;20105;-66
2023/04/13 02:22:36;;;;;;;0.17;0.17;;;;;;;8.03;45.09;99536.25;4930386;29;20106;-67
2023/04/13 02:25:02;;;;;;;0.50;0.20;;;;;;;8.05;45.04;99536.81;4928636;29;20098;-67
2023/04/13 02:27:30;;;;;;;0.20;0.20;;;;;;;8.08;44.70;99543.63;4928293;29;20488;-67
2023/04/13 02:29:56;;;;;;;0.10;0.10;;;;;;;8.09;44.56;99537.91;4945010;29;20511;-67
2023/04/13 02:32:23;;;;;;;0.10;0.10;;;;;;;8.08;44.91;99539.00;4944326;29;20043;-67
2023/04/13 02:34:52;;;;;;;0.23;0.23;;;;;;;8.13;44.73;99540.13;4914650;29;20054;-67
2023/04/13 02:37:19;;;;;;;0.10;0.10;;;;;;;8.13;44.90;99537.41;4928486;29;20686;-67
2023/04/13 02:39:46;;;;;;;0.40;0.30;;;;;;;8.19;44.76;99544.50;4926488;29;20055;-68
2023/04/13 02:42:12;;;;;;;0.10;0.10;;;;;;;8.24;44.68;99536.34;4924084;29;20054;-67
2023/04/13 02:44:38;;;;;;;0.30;0.30;;;;;;;8.30;44.59;99526.28;4944827;29;20075;-67
2023/04/13 02:47:05;;;;;;;0.30;0.30;;;;;;;8.40;44.17;99536.41;4912292;29;20055;-67
2023/04/13 02:49:32;;;;;;;0.17;0.17;;;;;;;8.38;44.46;99525.78;4910861;29;20640;-66
2023/04/13 02:52:38;;;;;;;0.10;0.10;;;;;;;8.34;44.35;99530.13;4929584;29;20075;-67
2023/04/13 02:55:07;;;;;;;0.10;0.10;;;;;;;8.35;44.41;99535.31;4927733;29;20400;-67
2023/04/13 02:57:46;;;;;;;0.10;0.10;;;;;;;8.37;44.18;99540.50;4912974;29;20066;-67
2023/04/13 03:00:14;;;;;;;0.10;0.10;;;;;;;8.42;44.10;99536.94;4928541;29;20137;-67
2023/04/13 03:02:47;;;;;;;0.35;0.30;;;;;;;8.46;44.24;99544.34;4928417;29;20214;-66
2023/04/13 03:05:18;;;;;;;0.10;0.10;;;;;;;8.48;43.98;99539.44;4927794;29;20586;-66
2023/04/13 03:07:46;;;;;;;0.20;0.20;;;;;;;8.45;43.75;99520.91;4943807;29;20055;-67
2023/04/13 03:10:12;;;;;;;0.25;0.17;;;;;;;8.58;43.78;99544.13;4926386;29;20070;-67
2023/04/13 03:12:40;;;;;;;0.20;0.20;;;;;;;8.68;43.58;99542.53;4926483;29;20426;-67
2023/04/13 03:15:10;;;;;;;0.20;0.20;;;;;;;8.74;43.40;99541.44;4910590;29;20470;-67
2023/04/13 03:17:40;;;;;;;0.20;0.20;;;;;;;8.79;43.24;99546.94;4926444;29;20462;-67
2023/04/13 03:20:09;;;;;;;0.10;0.10;;;;;;;8.79;43.31;99547.72;4927160;29;20048;-67
2023/04/13 03:22:36;;;;;;;0.52;0.30;;;;;;;8.88;43.17;99544.47;4926079;29;20138;-67
2023/04/13 03:25:04;;;;;;;0.20;0.20;;;;;;;8.92;43.17;99548.31;4927826;29;20051;-67
2023/04/13 03:27:36;;;;;;;0.20;0.20;;;;;;;8.97;42.92;99555.69;4927205;29;20329;-67
2023/04/13 03:30:02;;;;;;;0.20;0.20;;;;;;;8.99;42.81;99551.59;4927226;29;20059;-66
2023/04/13 03:32:36;;;;;;;0.30;0.30;;;;;;;9.02;42.75;99550.22;4926208;29;20055;-66
2023/04/13 03:35:02;;;;;;;0.17;0.17;;;;;;;9.04;42.76;99551.59;4911513;29;20511;-66
2023/04/13 03:37:31;;;;;;;0.20;0.20;;;;;;;9.00;42.76;99555.13;4943954;29;20058;-66
2023/04/13 03:40:10;;;;;;;0.30;0.30;;;;;;;9.03;42.48;99552.69;4925269;29;20056;-66
2023/04/13 03:42:45;;;;;;;0.20;0.20;;;;;;;8.95;42.81;99547.75;4942671;29;20625;-66
2023/04/13 03:45:11;;;;;;;0.20;0.20;;;;;;;9.00;42.85;99550.50;4927922;29;20064;-66
2023/04/13 03:47:38;;;;;;;0.20;0.20;;;;;;;9.00;42.69;99547.78;4926252;29;20534;-66
2023/04/13 03:50:05;;;;;;;0.20;0.20;;;;;;;9.03;42.82;99557.31;4923942;29;20407;-66
2023/04/13 03:52:34;;;;;;;0.20;0.20;;;;;;;9.06;42.58;99552.16;4927080;29;20047;-68
2023/04/13 03:55:02;;;;;;;0.10;0.10;;;;;;;9.09;42.25;99550.78;4929155;29;20078;-66
2023/04/13 03:57:33;;;;;;;0.20;0.20;;;;;;;9.18;42.16;99557.34;4943884;28;20101;-66
2023/04/13 04:00:02;;;;;;;0.57;0.22;;;;;;;9.26;41.96;99558.69;4927566;29;20507;-67
2023/04/13 04:02:47;;;;;;;0.25;0.17;;;;;;;9.33;41.73;99552.97;4926940;29;20059;-66
2023/04/13 04:05:20;;;;;;;0.10;0.10;;;;;;;9.39;41.74;99548.34;4912504;29;20431;-66
2023/04/13 04:07:52;;;;;;;0.10;0.10;;;;;;;9.51;41.54;99560.63;4930192;29;20051;-66
2023/04/13 04:10:18;;;;;;;0.20;0.20;;;;;;;9.59;41.43;99556.50;4927086;29;20063;-67
2023/04/13 04:12:47;;;;;;;0.28;0.28;;;;;;;9.66;41.13;99553.50;4910970;29;20044;-66
2023/04/13 04:15:14;;;;;;;0.52;0.20;;;;;;;9.72;40.83;99563.34;4910027;29;20043;-67
2023/04/13 04:17:41;;;;;;;0.13;0.13;;;;;;;9.79;40.87;99566.59;4926739;29;20043;-66
2023/04/13 04:20:09;;;;;;;0.38;0.22;;;;;;;9.85;40.57;99551.03;4929101;29;20377;-66
2023/04/13 04:22:35;;;;;;;0.20;0.20;;;;;;;10.00;40.41;99561.13;4926285;29;20133;-67
2023/04/13 04:25:01;;;;;;;0.40;0.20;;;;;;;10.12;40.40;99562.72;4917239;29;20067;-66
2023/04/13 04:27:36;;;;;;;0.22;0.20;;;;;;;10.16;40.26;99559.16;4924413;29;20115;-66
2023/04/13 04:30:06;;;;;;;0.22;0.22;;;;;;;10.30;39.92;99559.41;4925304;29;20133;-66
2023/04/13 04:32:35;;;;;;;0.30;0.20;;;;;;;10.36;39.82;99555.53;4940659;29;20735;-66
2023/04/13 04:35:10;;;;;;;0.20;0.20;;;;;;;10.43;39.45;99557.16;4924539;29;20126;-66
2023/04/13 04:37:41;;;;;;;0.45;0.28;;;;;;;10.51;39.28;99562.06;4921754;29;20085;-66
2023/04/13 04:40:12;;;;;;;0.75;0.30;;;;;;;10.59;38.94;99553.25;4922057;28;20054;-66
2023/04/13 04:42:40;;;;;;;0.20;0.20;;;;;;;10.72;38.63;99560.06;4923076;29;20322;-66
2023/04/13 04:45:15;;;;;;;0.20;0.20;;;;;;;10.82;38.46;99555.63;4926031;29;20094;-66
2023/04/13 04:47:44;;;;;;;0.20;0.20;;;;;;;10.85;38.40;99561.34;4931707;28;20526;-66
2023/04/13 04:50:16;;;;;;;0.45;0.20;;;;;;;10.95;38.26;99565.13;4930920;29;20036;-67
2023/04/13 04:52:45;;;;;;;0.20;0.20;;;;;;;11.01;37.98;99569.47;4950576;28;20079;-66
2023/04/13 04:55:16;;;;;;;0.20;0.20;;;;;;;11.03;37.78;99567.25;4930852;29;20051;-66
2023/04/13 04:57:42;;;;;;;0.20;0.20;;;;;;;11.08;37.78;99559.00;4948617;29;20079;-66
2023/04/13 05:00:15;;;;;;;0.20;0.20;;;;;;;11.10;37.64;99558.72;4946044;28;20276;-67
2023/04/13 05:02:48;;;;;;;0.20;0.20;;;;;;;11.16;37.57;99557.56;4915388;29;20051;-66
2023/04/13 05:05:15;;;;;;;0.30;0.30;;;;;;;11.21;37.44;99555.63;4927804;29;20075;-66
2023/04/13 05:07:41;;;;;;;0.20;0.20;;;;;;;11.24;37.54;99562.47;4943214;29;20479;-66
2023/04/13 05:10:11;;;;;;;0.20;0.20;;;;;;;11.38;37.65;99556.34;4931181;28;20063;-66
2023/04/13 05:12:43;;;;;;;0.20;0.20;;;;;;;11.37;37.00;99555.50;4941829;29;20053;-67
2023/04/13 05:15:09;;;;;;;0.13;0.13;;;;;;;11.51;36.96;99550.22;4931263;29;20061;-66
2023/04/13 05:17:36;;;;;;;0.20;0.20;;;;;;;11.56;36.87;99550.16;4928619;29;20067;-67
2023/04/13 05:20:06;;;;;;;0.20;0.20;;;;;;;11.58;36.68;99547.94;4930112;29;20520;-66
2023/04/13 05:22:42;;;;;;;0.20;0.20;;;;;;;11.67;36.54;99542.66;4927383;29;20043;-66
2023/04/13 05:25:09;;;;;;;0.20;0.20;;;;;;;11.71;36.39;99548.38;4927808;29;20047;-67
2023/04/13 05:27:35;;;;;;;0.20;0.20;;;;;;;11.82;36.36;99555.41;4925280;29;20058;-67
2023/04/13 05:30:03;;;;;;;0.25;0.25;;;;;;;11.88;36.11;99551.50;4924949;29;20055;-66
2023/04/13 05:32:32;;;;;;;0.40;0.22;;;;;;;11.99;36.08;99554.94;4912068;29;20082;-67
2023/04/13 05:34:59;;;;;;;0.20;0.20;;;;;;;12.10;35.83;99552.13;4927400;29;20051;-67
2023/04/13 05:37:27;;;;;;;0.25;0.20;;;;;;;12.19;35.77;99547.66;4926528;29;20055;-66
2023/04/13 05:39:54;;;;;;;0.10;0.10;;;;;;;12.29;35.43;99543.97;4922170;29;20054;-67
2023/04/13 05:42:32;;;;;;;0.35;0.30;;;;;;;12.33;35.41;99547.75;4764464;28;10000943;-67
2023/04/13 05:44:59;;;;;;;0.20;0.20;;;;;;;12.45;35.36;99544.59;4922557;29;20089;-67
2023/04/13 05:47:27;;;;;;;0.30;0.30;;;;;;;12.58;35.39;99548.56;4941227;29;20054;-67
2023/04/13 05:49:58;;;;;;;0.20;0.20;;;;;;;12.76;34.85;99549.66;4922225;29;20043;-66
2023/04/13 05:52:25;;;;;;;0.20;0.20;;;;;;;12.97;34.58;99554.88;4908276;29;20133;-67
2023/04/13 05:54:52;;;;;;;0.30;0.30;;;;;;;13.19;34.11;99546.03;4923913;29;20521;-66
2023/04/13 05:57:20;;;;;;;0.20;0.20;;;;;;;13.29;34.16;99551.34;4926060;29;20130;-66
2023/04/13 05:59:49;;;;;;;0.20;0.20;;;;;;;13.24;34.09;99553.34;4922695;29;21266;-66
2023/04/13 06:02:19;;;;;;;0.38;0.30;;;;;;;13.24;34.08;99548.69;4926895;29;20064;-66
2023/04/13 06:04:47;;;;;;;0.63;0.30;;;;;;;13.22;34.17;99552.84;4924441;29;20054;-67
2023/04/13 06:07:15;;;;;;;0.20;0.20;;;;;;;13.18;34.25;99547.97;4925381;29;20055;-66
2023/04/13 06:09:41;;;;;;;0.40;0.20;;;;;;;13.14;34.11;99544.19;4930564;28;20857;-67
2023/04/13 06:12:09;;;;;;;0.20;0.20;;;;;;;13.09;34.17;99548.94;4932038;28;20051;-66
2023/04/13 06:14:35;;;;;;;;;;;;;;;13.06;34.38;99544.84;4911124;29;20467;-67
2023/04/13 06:17:01;;;;;;;0.30;0.30;;;;;;;13.14;34.42;99548.84;4938989;29;19937;-67
2023/04/13 06:19:27;;;;;;;0.47;0.20;;;;;;;13.27;34.32;99545.34;4941704;29;20682;-67
2023/04/13 06:21:53;;;;;;;0.20;0.20;;;;;;;13.39;34.26;99533.88;4924197;29;20047;-67
2023/04/13 06:24:21;;;;;;;0.28;0.28;;;;;;;13.46;33.93;99534.38;4926893;29;20114;-67
2023/04/13 06:26:47;;;;;;;0.30;0.30;;;;;;;13.64;33.98;99542.03;4941336;29;20055;-67
2023/04/13 06:29:15;;;;;;;0.20;0.20;;;;;;;13.90;33.46;99543.19;4941484;29;20384;-67
2023/04/13 06:31:48;;;;;;;0.20;0.20;;;;;;;14.18;33.37;99534.16;4924672;29;20879;-67
2023/04/13 06:34:17;;;;;;;0.55;0.30;;;;;;;14.34;32.89;99542.91;4919876;29;20158;-66
2023/04/13 06:36:44;;;;;;;0.25;0.25;;;;;;;14.54;32.67;99536.19;4927745;29;20518;-67
2023/04/13 06:39:13;;;;;;;0.32;0.32;;;;;;;14.69;32.45;99548.78;4945222;29;20047;-67
2023/04/13 06:41:43;;;;;;;0.30;0.30;;;;;;;14.81;32.08;99545.50;4927914;29;20054;-71
2023/04/13 06:44:15;;;;;;;0.95;0.40;;;;;;;15.13;31.62;99535.41;4927090;29;20697;-67
2023/04/13 06:46:50;;;;;;;0.30;0.30;;;;;;;15.45;31.40;99535.50;4927161;29;20071;-68
2023/04/13 06:49:18;;;;;;;0.30;0.30;;;;;;;15.72;30.56;99537.28;4925159;29;20079;-67
2023/04/13 06:51:44;;;;;;;0.32;0.32;;;;;;;15.81;30.30;99528.25;4944275;29;20501;-67
2023/04/13 06:54:10;;;;;;;0.22;0.22;;;;;;;15.78;29.93;99529.69;4925417;29;20153;-67
2023/04/13 06:56:42;;;;;;;0.30;0.30;;;;;;;15.73;30.33;99536.13;4924579;29;20063;-67
2023/04/13 06:59:08;;;;;;;0.53;0.37;;;;;;;15.90;29.96;99542.91;4927291;29;20043;-68
2023/04/13 07:01:37;;;;;;;0.30;0.30;;;;;;;15.87;29.96;99546.25;4927844;29;20438;-68
2023/04/13 07:04:05;;;;;;;0.30;0.30;;;;;;;15.85;29.90;99532.00;4927412;29;20075;-67
2023/04/13 07:06:32;;;;;;;0.80;0.30;;;;;;;15.72;30.03;99517.19;4925269;29;20471;-67
2023/04/13 07:08:59;;;;;;;0.38;0.30;;;;;;;15.97;29.70;99547.97;4912448;29;20051;-67
2023/04/13 07:11:26;;;;;;;0.30;0.30;;;;;;;16.09;29.63;99541.88;4926288;29;20070;-67
2023/04/13 07:13:52;;;;;;;0.30;0.30;;;;;;;16.19;29.24;99540.78;4943642;29;20074;-67
2023/04/13 07:16:19;;;;;;;0.30;0.30;;;;;;;16.25;29.57;99531.22;4925306;29;20525;-67
2023/04/13 07:18:47;;;;;;;0.20;0.20;;;;;;;16.30;29.41;99553.94;4912563;29;20102;-67
2023/04/13 07:21:13;;;;;;;0.30;0.30;;;;;;;16.20;29.30;99529.41;4941297;29;20429;-67
2023/04/13 07:23:53;;;;;;;0.30;0.30;;;;;;;16.31;29.34;99546.47;4927085;29;20055;-67
2023/04/13 07:26:19;;;;;;;0.35;0.30;;;;;;;16.37;29.51;99544.38;4946066;29;20050;-67
2023/04/13 07:28:45;;;;;;;0.40;0.38;;;;;;;16.38;29.50;99546.81;4911348;29;20047;-67
2023/04/13 07:31:12;;;;;;;0.40;0.40;;;;;;;16.56;28.77;99533.91;4944983;29;20047;-67
2023/04/13 07:33:41;;;;;;;0.40;0.40;;;;;;;16.57;28.96;99543.81;4928838;29;20134;-67
2023/04/13 07:36:11;;;;;;;0.40;0.30;;;;;;;16.53;28.95;99551.06;4942183;29;20071;-68
2023/04/13 07:38:39;;;;;;;0.40;0.40;;;;;;;16.54;29.19;99554.66;4924562;29;20511;-67
2023/04/13 07:41:06;;;;;;;0.30;0.30;;;;;;;16.64;28.91;99550.78;4932870;29;20051;-68
2023/04/13 07:43:35;;;;;;;0.30;0.30;;;;;;;16.65;28.82;99555.16;4927688;29;20129;-67
2023/04/13 07:46:10;;;;;;;0.55;0.50;;;;;;;16.43;28.04;99551.38;4944000;28;20058;-67
2023/04/13 07:48:37;;;;;;;0.40;0.40;;;;;;;16.34;28.24;99537.56;4911990;29;20062;-67
2023/04/13 07:51:17;;;;;;;0.80;0.40;;;;;;;16.42;28.37;99547.00;4928344;29;20054;-67
2023/04/13 07:53:43;;;;;;;0.40;0.40;;;;;;;16.49;27.82;99546.53;4929606;29;20059;-67
2023/04/13 07:56:09;;;;;;;0.30;0.30;;;;;;;16.41;27.84;99532.38;4913124;29;20471;-67
2023/04/13 07:58:37;;;;;;;;;;;;;;;16.43;28.00;99529.31;4931193;29;20049;-67
2023/04/13 08:01:03;;;;;;;0.32;0.32;;;;;;;16.44;27.88;99553.81;4946203;29;20325;-67
2023/04/13 08:03:30;;;;;;;0.40;0.40;;;;;;;16.47;28.14;99549.59;4929287;29;20134;-67
2023/04/13 08:05:56;;;;;;;0.40;0.40;;;;;;;16.52;27.99;99546.69;4922199;29;20054;-67
2023/04/13 08:08:24;;;;;;;0.43;0.43;;;;;;;16.63;27.92;99541.69;4942698;29;20047;-66
2023/04/13 08:10:50;;;;;;;0.40;0.30;;;;;;;16.90;27.78;99533.44;4927376;29;20063;-69
2023/04/13 08:13:16;;;;;;;0.38;0.38;;;;;;;16.92;27.27;99529.22;4910562;29;20053;-67
2023/04/13 08:15:43;;;;;;;0.40;0.40;;;;;;;16.95;27.57;99525.81;4895234;29;20602;-67
2023/04/13 08:18:09;;;;;;;0.38;0.38;;;;;;;17.01;27.24;99532.00;4928250;29;20130;-67
2023/04/13 08:20:36;;;;;;;1.83;0.57;;;;;;;17.11;27.02;99539.16;4909046;29;20051;-67
2023/04/13 08:23:03;;;;;;;0.30;0.30;;;;;;;17.31;27.04;99547.94;4928871;29;20110;-67
2023/04/13 08:25:31;;;;;;;0.50;0.50;;;;;;;17.49;26.37;99537.69;4929622;29;20138;-67
2023/04/13 08:27:58;;;;;;;0.65;0.55;;;;;;;17.49;26.16;99544.00;4928746;29;20062;-67
2023/04/13 08:30:25;;;;;;;0.40;0.40;;;;;;;17.46;25.95;99541.06;4928698;29;20455;-66
2023/04/13 08:32:57;;;;;;;1.05;0.40;;;;;;;17.38;26.04;99529.72;4930001;29;20126;-67
2023/04/13 08:35:23;;;;;;;1.65;0.40;;;;;;;17.38;26.03;99543.53;4947330;29;20066;-67
2023/04/13 08:37:51;;;;;;;0.38;0.38;;;;;;;17.44;25.60;99539.44;4929970;29;20454;-67
2023/04/13 08:40:18;;;;;;;0.50;0.50;;;;;;;17.88;25.28;99538.53;4944736;29;20542;-67
2023/04/13 08:42:47;;;;;;;0.50;0.50;;;;;;;18.62;24.33;99545.88;4933004;29;20141;-67
2023/04/13 08:45:14;;;;;;;0.70;0.50;;;;;;;18.88;24.21;99540.16;4930237;29;20051;-67
2023/04/13 08:47:45;;;;;;;0.57;0.57;;;;;;;18.69;24.25;99540.59;4929893;29;20515;-67
2023/04/13 08:50:13;;;;;;;0.40;0.40;;;;;;;18.53;24.31;99538.41;4932380;29;20059;-67
2023/04/13 08:52:43;;;;;;;0.40;0.40;;;;;;;18.46;24.63;99524.31;4929411;29;20047;-67
2023/04/13 08:55:14;;;;;;;0.57;0.57;;;;;;;18.67;24.28;99531.81;4928928;29;20047;-67
2023/04/13 08:57:42;;;;;;;0.60;0.60;;;;;;;19.29;23.51;99532.19;4932475;29;20467;-67
2023/04/13 09:00:15;;;;;;;0.50;0.50;;;;;;;20.35;22.38;99522.69;4930484;29;20051;-67
2023/04/13 09:02:47;;;;;;;1.30;0.65;;;;;;;21.03;21.35;99529.53;4949306;28;20090;-67
2023/04/13 09:05:14;;;;;;;0.70;0.70;;;;;;;21.80;20.95;99536.03;4930173;29;20048;-67
2023/04/13 09:07:52;;;;;;;0.60;0.60;;;;;;;22.31;20.22;99533.69;4944709;29;20057;-67
2023/04/13 09:10:19;;;;;;;0.70;0.70;;;;;;;22.56;19.88;99530.72;4930477;29;20146;-67
2023/04/13 09:12:47;;;;;;;0.77;0.77;;;;;;;23.01;19.18;99522.91;4914087;29;20050;-70
2023/04/13 09:15:15;;;;;;;0.70;0.70;;;;;;;23.06;19.13;99529.00;4920103;29;20400;-66
2023/04/13 09:18:06;;;;;;;0.70;0.70;;;;;;;22.66;19.39;99533.75;4915595;29;20070;-67
2023/04/13 09:20:33;;;;;;;0.60;0.60;;;;;;;22.22;20.08;99525.50;4915152;29;20518;-66
2023/04/13 09:23:10;;;;;;;0.60;0.60;;;;;;;21.94;20.19;99530.03;4927968;29;20047;-67
2023/04/13 09:25:36;;;;;;;0.60;0.60;;;;;;;22.07;19.40;99519.59;4944078;29;20062;-66
2023/04/13 09:28:04;;;;;;;0.60;0.60;;;;;;;21.59;19.50;99515.94;4946111;29;20073;-67
2023/04/13 09:30:32;;;;;;;0.70;0.70;;;;;;;21.71;19.59;99526.25;4929837;29;20202;-67
2023/04/13 09:33:03;;;;;;;0.70;0.70;;;;;;;21.84;19.27;99515.84;4948065;29;20039;-67
2023/04/13 09:35:30;;;;;;;0.80;0.80;;;;;;;21.85;19.23;99511.88;4946693;28;20094;-67
2023/04/13 09:38:15;;;;;;;0.70;0.70;;;;;;;21.89;19.06;99518.34;4950215;28;20039;-67
2023/04/13 09:40:52;;;;;;;0.90;0.90;;;;;;;22.12;18.59;99514.94;4926350;29;20097;-67
2023/04/13 09:43:19;;;;;;;1.00;1.00;;;;;;;22.70;18.27;99524.66;4931545;29;20529;-67
2023/04/13 09:45:47;;;;;;;0.90;0.90;;;;;;;23.56;17.59;99516.47;4945645;29;20495;-67
2023/04/13 09:48:17;;;;;;;0.90;0.90;;;;;;;24.21;16.48;99507.25;4949131;29;20051;-67
2023/04/13 09:50:43;;;;;;;0.90;0.90;;;;;;;24.51;16.46;99511.25;4927864;29;20474;-67
2023/04/13 09:53:10;;;;;;;0.90;0.90;;;;;;;24.94;15.98;99505.47;4943621;29;20051;-67
2023/04/13 09:55:37;;;;;;;0.98;0.98;;;;;;;24.72;16.17;99513.56;4945849;29;20507;-67
2023/04/13 09:58:11;;;;;;;1.00;1.00;;;;;;;24.64;16.42;99521.03;4928624;29;20107;-67
2023/04/13 10:00:37;;;;;;;0.90;0.90;;;;;;;24.22;16.68;99513.63;4943086;29;20463;-67
2023/04/13 10:03:09;;;;;;;0.80;0.80;;;;;;;24.06;17.07;99528.53;4930996;29;20047;-67
2023/04/13 10:05:36;;;;;;;0.90;0.90;;;;;;;23.90;16.63;99516.66;4944533;29;20055;-66
2023/04/13 10:08:03;;;;;;;0.60;0.60;;;;;;;23.64;16.86;99523.78;4930808;29;20059;-68
2023/04/13 10:10:29;;;;;;;0.60;0.60;;;;;;;23.37;17.02;99504.97;4946817;29;20055;-67
2023/04/13 10:12:59;;;;;;;0.70;0.70;;;;;;;22.84;17.60;99502.66;4948501;29;20051;-68
2023/04/13 10:15:46;;;;;;;0.90;0.90;;;;;;;22.63;17.59;99491.88;4947010;29;20047;-68
2023/04/13 10:18:26;;;;;;;0.90;0.90;;;;;;;22.60;17.98;99515.69;4943640;29;20047;-67
2023/04/13 10:20:53;;;;;;;0.77;0.77;;;;;;;23.10;17.68;99506.78;4928240;29;20084;-67
2023/04/13 10:23:20;;;;;;;0.60;0.60;;;;;;;23.25;17.60;99501.50;4946955;29;20043;-67
2023/04/13 10:25:50;;;;;;;0.80;0.80;;;;;;;23.13;17.71;99491.31;4948412;29;20057;-67
2023/04/13 10:28:16;;;;;;;0.70;0.70;;;;;;;23.22;18.05;99492.69;4946067;29;20074;-67
2023/04/13 10:30:48;;;;;;;0.80;0.80;;;;;;;23.12;17.72;99503.66;4946558;29;20483;-68
2023/04/13 10:33:16;;;;;;;0.80;0.80;;;;;;;22.90;17.91;99505.97;4926502;29;20310;-68
2023/04/13 10:35:54;;;;;;;0.73;0.73;;;;;;;22.77;17.94;99506.09;4925823;29;20051;-67
2023/04/13 10:38:20;;;;;;;0.70;0.70;;;;;;;22.64;18.07;99505.44;4926082;29;20063;-68
2023/04/13 10:40:47;;;;;;;0.70;0.70;;;;;;;22.48;18.27;99499.09;4925755;29;20118;-68
2023/04/13 10:43:25;;;;;;;0.80;0.80;;;;;;;22.53;18.13;99493.25;4947790;29;20065;-67
2023/04/13 10:46:03;;;;;;;0.80;0.80;;;;;;;22.71;18.02;99495.59;4944859;28;20047;-68
2023/04/13 10:48:30;;;;;;;0.70;0.70;;;;;;;23.00;17.75;99494.25;4946421;29;20451;-67
2023/04/13 10:50:57;;;;;;;0.80;0.80;;;;;;;23.02;17.76;99493.88;4946630;29;20467;-67
2023/04/13 10:53:24;;;;;;;0.70;0.70;;;;;;;23.13;17.75;99503.25;4929886;29;20074;-67
2023/04/13 10:55:50;;;;;;;0.80;0.80;;;;;;;23.31;17.54;99502.84;4946972;29;20057;-68
2023/04/13 10:58:17;;;;;;;1.00;1.00;;;;;;;23.48;17.26;99504.38;4947910;29;20051;-68
2023/04/13 11:00:43;;;;;;;;;;;;;;;24.14;16.72;99512.69;4929698;29;20514;-68
2023/04/13 11:03:10;;;;;;;0.80;0.80;;;;;;;24.18;16.52;99496.00;4945688;29;19927;-67
2023/04/13 11:05:38;;;;;;;1.00;1.00;;;;;;;23.71;16.56;99509.97;4948467;29;20051;-68
2023/04/13 11:08:05;;;;;;;0.70;0.70;;;;;;;23.94;16.15;99507.16;4898316;29;20059;-67
2023/04/13 11:10:31;;;;;;;0.70;0.70;;;;;;;23.86;16.65;99507.41;4947290;29;20063;-68
2023/04/13 11:12:58;;;;;;;0.80;0.80;;;;;;;23.28;17.26;99506.38;4944170;29;20058;-67
2023/04/13 11:15:27;;;;;;;1.10;1.10;;;;;;;23.86;16.84;99515.78;4945257;29;20586;-68
2023/04/13 11:17:54;;;;;;;1.10;1.10;;;;;;;24.64;16.51;99504.25;4946657;29;20051;-67
2023/04/13 11:20:32;;;;;;;0.93;0.90;;;;;;;25.22;15.56;99497.81;4929301;29;20046;-68
2023/04/13 11:23:02;;;;;;;1.50;1.40;;;;;;;25.33;15.51;99493.13;4941444;28;20534;-68
2023/04/13 11:25:29;;;;;;;1.40;1.30;;;;;;;26.36;14.83;99495.69;4926868;29;20127;-68
2023/04/13 11:27:58;;;;;;;1.50;1.40;;;;;;;27.85;13.59;99489.44;4941482;29;20051;-68
2023/04/13 11:30:24;;;;;;;1.40;1.30;;;;;;;28.96;12.55;99500.13;4940666;29;20050;-68
2023/04/13 11:32:52;;;;;;;1.20;1.10;;;;;;;29.39;12.60;99488.63;4926761;29;20431;-68
2023/04/13 11:35:19;;;;;;;1.40;1.30;;;;;;;29.00;12.75;99489.66;4941509;29;20066;-68
2023/04/13 11:37:48;;;;;;;1.00;1.00;;;;;;;28.12;13.40;99491.03;4926404;29;20070;-67
2023/04/13 11:40:20;;;;;;;1.10;1.10;;;;;;;27.02;14.24;99483.63;4944858;29;20055;-67
2023/04/13 11:42:47;;;;;;;1.10;1.10;;;;;;;26.59;14.57;99489.81;4926415;29;20047;-67
2023/04/13 11:45:15;;;;;;;1.10;1.10;;;;;;;26.44;14.78;99488.91;4943821;29;20055;-67